Portada
METAR-TAF:

METAR-TAF

Aeropuertos :

Rochelle Municipal Airport (Koritz Field)

Rochelle, Illinois, Estados Unidos

latitud: 41-53-35N, longitud: 089-04-42W, altitud: 238 m

Observación

El informe se hizo hace 49 minutos, a las 19:35 UTC
Viento 13 kt del sur-suroeste con ráfagas de 17 kt
Temperatura 31°C
Humedad 40%
Presión 1022 hPa
Visibilidad: 16.1 km
Nubes dispersas a una altura de 6000 ft

METAR: KRPJ 191935Z AUTO 21013G17KT 10SM SCT060 31/16 A3019 RMK AO2 T03140158

Hora: 15:24 (20:24 UTC)


TAF: falta

Observaciones y pronósticos meteorológicos de más de 4000 aeropuertos (mensajes METAR y TAF).

Los puntos amarillos y rojos representan las estaciones disponibles.

Ponga el ratón en el punto deseado para ver el nombre de la estación.

Haga clic para ver las observaciones y los pronósticos meteorológicos.

Para cambiar el mapa : haga clic en los botones verdes con una cruz de color negro para hacer un zoom, en el botón verde con un guión para alejar o en las flechas verdes para mapas adyacentes.


METAR-TAF: